Time;durP1;ratioP1;P1;durP2;ratioP2;P2;SDS_P1;SDS_P2;PMS_P1;PMS_P2;Temp;Humidity;BMP_temperature;BMP_pressure;BME280_temperature;BME280_humidity;BME280_pressure;Samples;Min_cycle;Max_cycle;Signal;HPM_P1;HPM_P2
2023/10/28 00:00:42;;;;;;;8.60;8.40;;;9.80;99.90;;;;;;4946475;29;20259;-81
2023/10/28 00:03:11;;;;;;;8.70;8.50;;;9.90;99.90;;;;;;4945821;29;20242;-82
2023/10/28 00:05:38;;;;;;;9.10;8.80;;;9.90;99.90;;;;;;4945304;29;20281;-80
2023/10/28 00:08:07;;;;;;;9.13;8.83;;;9.90;99.90;;;;;;4945711;29;20262;-80
2023/10/28 00:10:35;;;;;;;8.97;8.67;;;9.90;99.90;;;;;;4945093;29;20290;-79
2023/10/28 00:13:02;;;;;;;9.20;8.90;;;9.90;99.90;;;;;;4946043;29;20234;-82
2023/10/28 00:15:30;;;;;;;9.30;9.00;;;9.90;99.90;;;;;;4945437;29;20231;-81
2023/10/28 00:17:58;;;;;;;9.20;8.90;;;9.90;99.90;;;;;;4945442;29;20231;-80
2023/10/28 00:20:29;;;;;;;9.70;9.40;;;9.90;99.90;;;;;;4943722;29;20239;-79
2023/10/28 00:22:57;;;;;;;9.40;9.10;;;9.80;99.90;;;;;;4945930;29;20230;-81
2023/10/28 00:25:27;;;;;;;9.30;9.00;;;9.80;99.90;;;;;;4945591;29;20318;-80
2023/10/28 00:27:54;;;;;;;9.27;8.97;;;9.80;99.90;;;;;;4946103;29;20241;-80
2023/10/28 00:30:22;;;;;;;9.60;9.30;;;9.80;99.90;;;;;;4943672;28;20287;-81
2023/10/28 00:32:50;;;;;;;9.50;9.20;;;9.80;99.90;;;;;;4925643;29;20242;-82
2023/10/28 00:35:17;;;;;;;9.33;9.03;;;9.80;99.90;;;;;;4927211;29;20246;-80
2023/10/28 00:37:47;;;;;;;9.40;9.10;;;9.80;99.90;;;;;;4926337;29;20243;-82
2023/10/28 00:40:15;;;;;;;9.30;9.00;;;9.80;99.90;;;;;;4925465;29;20244;-80
2023/10/28 00:42:42;;;;;;;9.60;9.30;;;9.80;99.90;;;;;;4925304;29;20239;-81
2023/10/28 00:45:11;;;;;;;9.57;9.27;;;9.80;99.90;;;;;;4925013;29;20263;-81
2023/10/28 00:47:41;;;;;;;9.53;9.23;;;9.80;99.90;;;;;;4924786;29;20243;-80
2023/10/28 00:50:12;;;;;;;9.67;9.37;;;9.80;99.90;;;;;;4924500;29;20256;-80
2023/10/28 00:52:41;;;;;;;9.70;9.40;;;9.80;99.90;;;;;;4925119;29;20227;-81
2023/10/28 00:55:11;;;;;;;9.60;9.30;;;9.80;99.90;;;;;;4925528;29;20318;-80
2023/10/28 00:57:39;;;;;;;9.80;9.50;;;9.80;99.90;;;;;;4926269;29;20266;-81
2023/10/28 01:00:08;;;;;;;9.90;9.60;;;9.80;99.90;;;;;;4926990;29;20236;-81
2023/10/28 01:02:36;;;;;;;9.80;9.50;;;9.80;99.90;;;;;;4926250;29;20258;-80
2023/10/28 01:05:04;;;;;;;9.80;9.50;;;9.80;99.90;;;;;;4925142;29;20249;-80
2023/10/28 01:07:32;;;;;;;9.70;9.40;;;9.80;99.90;;;;;;4925795;29;20295;-82
2023/10/28 01:10:00;;;;;;;9.73;9.43;;;9.70;99.90;;;;;;4924509;29;20319;-81
2023/10/28 01:12:29;;;;;;;9.60;9.30;;;9.70;99.90;;;;;;4925624;29;20255;-81
2023/10/28 01:14:56;;;;;;;9.60;9.30;;;9.70;99.90;;;;;;4925294;29;20274;-80
2023/10/28 01:17:25;;;;;;;9.47;9.17;;;9.70;99.90;;;;;;4926499;29;20229;-80
2023/10/28 01:19:53;;;;;;;9.30;9.00;;;9.60;99.90;;;;;;4925785;29;20276;-82
2023/10/28 01:22:23;;;;;;;9.50;9.20;;;9.60;99.90;;;;;;4925626;29;20242;-81
2023/10/28 01:24:51;;;;;;;9.60;9.30;;;9.60;99.90;;;;;;4924454;29;20250;-80
2023/10/28 01:27:18;;;;;;;9.40;9.10;;;9.60;99.90;;;;;;4924431;29;20243;-81
2023/10/28 01:29:46;;;;;;;9.40;9.10;;;9.60;99.90;;;;;;4925066;29;20262;-82
2023/10/28 01:32:14;;;;;;;9.53;9.23;;;9.60;99.90;;;;;;4925386;29;20319;-81
2023/10/28 01:34:49;;;;;;;9.40;9.10;;;9.60;99.90;;;;;;4924140;28;20235;-82
2023/10/28 01:37:17;;;;;;;9.60;9.30;;;9.60;99.90;;;;;;4925484;28;20235;-80
2023/10/28 01:39:48;;;;;;;9.43;9.13;;;9.60;99.90;;;;;;4924537;29;20234;-81
2023/10/28 01:42:15;;;;;;;9.37;9.07;;;9.60;99.90;;;;;;4941441;29;20239;-82
2023/10/28 01:44:42;;;;;;;9.50;9.20;;;9.60;99.90;;;;;;4946835;29;20319;-83
2023/10/28 01:47:10;;;;;;;9.60;9.30;;;9.60;99.90;;;;;;4946813;29;20242;-80
2023/10/28 01:49:38;;;;;;;9.70;9.40;;;9.60;99.90;;;;;;4945388;29;20729;-81
2023/10/28 01:52:07;;;;;;;9.70;9.40;;;9.60;99.90;;;;;;4947502;28;20278;-81
2023/10/28 01:54:35;;;;;;;9.70;9.40;;;9.60;99.90;;;;;;4946941;28;20258;-81
2023/10/28 01:57:06;;;;;;;9.80;9.50;;;9.60;99.90;;;;;;4947150;29;20273;-81
2023/10/28 01:59:33;;;;;;;9.40;9.10;;;9.60;99.90;;;;;;4946501;29;20263;-81
2023/10/28 02:02:02;;;;;;;9.90;9.60;;;9.60;99.90;;;;;;4947376;29;20263;-81
2023/10/28 02:04:30;;;;;;;9.90;9.60;;;9.60;99.90;;;;;;4947575;28;20324;-81
2023/10/28 02:06:58;;;;;;;9.87;9.57;;;9.60;99.90;;;;;;4947292;29;20246;-81
2023/10/28 02:09:26;;;;;;;9.60;9.30;;;9.60;99.90;;;;;;4947306;29;20235;-81
2023/10/28 02:11:54;;;;;;;9.63;9.33;;;9.70;99.90;;;;;;4947482;29;20242;-80
2023/10/28 02:14:24;;;;;;;9.80;9.50;;;9.70;99.90;;;;;;4946969;28;20294;-82
2023/10/28 02:16:51;;;;;;;9.70;9.40;;;9.70;99.90;;;;;;4946988;29;20271;-81
2023/10/28 02:19:21;;;;;;;9.83;9.53;;;9.70;99.90;;;;;;4947772;29;20263;-81
2023/10/28 02:21:49;;;;;;;9.70;9.40;;;9.70;99.90;;;;;;4947584;29;20239;-81
2023/10/28 02:24:19;;;;;;;9.90;9.60;;;9.70;99.90;;;;;;4946860;29;20255;-81
2023/10/28 02:26:47;;;;;;;9.70;9.40;;;9.70;99.90;;;;;;4946917;29;20227;-81
2023/10/28 02:29:14;;;;;;;9.93;9.63;;;9.70;99.90;;;;;;4946490;29;20219;-81
2023/10/28 02:31:43;;;;;;;9.80;9.50;;;9.70;99.90;;;;;;4946760;29;20306;-80
2023/10/28 02:34:11;;;;;;;9.73;9.43;;;9.70;99.90;;;;;;4947224;29;20234;-82
2023/10/28 02:36:40;;;;;;;9.87;9.57;;;9.70;99.90;;;;;;4946971;29;20313;-81
2023/10/28 02:39:07;;;;;;;9.90;9.60;;;9.70;99.90;;;;;;4946098;29;20319;-81
2023/10/28 02:41:35;;;;;;;9.70;9.40;;;9.70;99.90;;;;;;4945952;29;20238;-81
2023/10/28 02:44:03;;;;;;;9.70;9.40;;;9.80;99.90;;;;;;4946741;29;20238;-79
2023/10/28 02:46:30;;;;;;;9.87;9.57;;;9.80;99.90;;;;;;4946239;29;20234;-81
2023/10/28 02:48:59;;;;;;;9.90;9.60;;;9.80;99.90;;;;;;4946892;29;20231;-82
2023/10/28 02:51:26;;;;;;;9.80;9.50;;;9.90;99.90;;;;;;4945669;29;20242;-82
2023/10/28 02:53:53;;;;;;;9.73;9.43;;;9.90;99.90;;;;;;4946065;29;20731;-80
2023/10/28 02:56:20;;;;;;;10.10;9.80;;;9.90;99.90;;;;;;4945242;29;20235;-82
2023/10/28 02:58:47;;;;;;;9.67;9.37;;;9.90;99.90;;;;;;4946664;29;20234;-81
2023/10/28 03:01:15;;;;;;;9.77;9.47;;;9.90;99.90;;;;;;4946124;29;20235;-81
2023/10/28 03:03:43;;;;;;;9.73;9.43;;;9.90;99.90;;;;;;4945886;29;20264;-80
2023/10/28 03:06:12;;;;;;;9.93;9.63;;;9.90;99.90;;;;;;4946842;29;20239;-81
2023/10/28 03:08:40;;;;;;;9.80;9.50;;;9.90;99.90;;;;;;4946460;29;20242;-81
2023/10/28 03:11:08;;;;;;;9.80;9.50;;;9.90;99.90;;;;;;4945686;29;20246;-81
2023/10/28 03:13:35;;;;;;;9.83;9.53;;;9.90;99.90;;;;;;4945837;29;20230;-81
2023/10/28 03:16:03;;;;;;;9.83;9.53;;;10.00;99.90;;;;;;4945846;29;20279;-80
2023/10/28 03:18:31;;;;;;;9.90;9.60;;;9.90;99.90;;;;;;4946272;29;20219;-80
2023/10/28 03:20:58;;;;;;;9.90;9.60;;;9.90;99.90;;;;;;4947108;29;20322;-81
2023/10/28 03:23:28;;;;;;;9.90;9.60;;;9.90;99.90;;;;;;4947379;28;20235;-81
2023/10/28 03:25:55;;;;;;;9.93;9.63;;;9.90;99.90;;;;;;4946277;29;20241;-80
2023/10/28 03:28:22;;;;;;;10.00;9.70;;;9.90;99.90;;;;;;4945650;29;20235;-82
2023/10/28 03:30:49;;;;;;;9.73;9.43;;;9.90;99.90;;;;;;4945976;29;20234;-80
2023/10/28 03:33:17;;;;;;;10.10;9.80;;;10.00;99.90;;;;;;4946179;29;20306;-80
2023/10/28 03:35:44;;;;;;;9.70;9.40;;;9.90;99.90;;;;;;4948708;29;20302;-80
2023/10/28 03:38:11;;;;;;;10.20;9.90;;;9.90;99.90;;;;;;4944818;29;20238;-80
2023/10/28 03:40:40;;;;;;;10.10;9.80;;;9.90;99.90;;;;;;4943083;29;20234;-80
2023/10/28 03:43:08;;;;;;;10.10;9.80;;;10.00;99.90;;;;;;4943722;29;20231;-80
2023/10/28 03:45:37;;;;;;;10.30;10.00;;;10.00;99.90;;;;;;4943756;28;20325;-80
2023/10/28 03:48:05;;;;;;;10.30;10.00;;;10.00;99.90;;;;;;4945008;29;20231;-80
2023/10/28 03:50:32;;;;;;;10.43;10.13;;;10.00;99.90;;;;;;4944819;29;20239;-80
2023/10/28 03:52:59;;;;;;;10.40;10.10;;;10.00;99.90;;;;;;4943271;29;20266;-79
2023/10/28 03:55:27;;;;;;;10.40;10.10;;;9.90;99.90;;;;;;4943549;29;20231;-80
2023/10/28 03:57:56;;;;;;;10.40;10.10;;;10.00;99.90;;;;;;4943574;29;20243;-80
2023/10/28 04:00:22;;;;;;;10.20;9.90;;;10.00;99.90;;;;;;4942673;29;20245;-80
2023/10/28 04:02:51;;;;;;;10.40;10.10;;;10.00;99.90;;;;;;4937614;29;20238;-81
2023/10/28 04:05:19;;;;;;;10.20;9.90;;;9.90;99.90;;;;;;4944098;29;20235;-80
2023/10/28 04:07:46;;;;;;;10.27;9.97;;;10.00;99.90;;;;;;4946313;28;20330;-79
2023/10/28 04:10:13;;;;;;;10.10;9.80;;;9.90;99.90;;;;;;4949690;29;20238;-80
2023/10/28 04:12:40;;;;;;;10.20;9.90;;;9.90;99.90;;;;;;4947385;29;20239;-80
2023/10/28 04:15:13;;;;;;;10.20;9.90;;;9.90;99.90;;;;;;4946328;29;20235;-80
2023/10/28 04:17:40;;;;;;;10.00;9.70;;;9.90;99.90;;;;;;4944324;29;20235;-80
2023/10/28 04:20:10;;;;;;;10.03;9.73;;;9.80;99.90;;;;;;4944660;29;20243;-79
2023/10/28 04:22:37;;;;;;;10.10;9.80;;;9.80;99.90;;;;;;4945243;29;20325;-80
2023/10/28 04:25:05;;;;;;;10.03;9.73;;;9.80;99.90;;;;;;4944561;29;20235;-80
2023/10/28 04:27:33;;;;;;;10.20;9.90;;;9.80;99.90;;;;;;4945387;29;20231;-79
2023/10/28 04:30:00;;;;;;;10.17;9.87;;;9.80;99.90;;;;;;4944464;28;20270;-79
2023/10/28 04:32:28;;;;;;;9.83;9.53;;;9.80;99.90;;;;;;4945361;29;20266;-79
2023/10/28 04:34:56;;;;;;;10.00;9.70;;;9.80;99.90;;;;;;4944444;29;20269;-80
2023/10/28 04:37:24;;;;;;;10.10;9.80;;;9.80;99.90;;;;;;4943819;29;20273;-79
2023/10/28 04:39:52;;;;;;;10.20;9.90;;;9.80;99.90;;;;;;4944150;29;20235;-80
2023/10/28 04:42:19;;;;;;;9.93;9.63;;;9.80;99.90;;;;;;4943730;29;20249;-79
2023/10/28 04:44:47;;;;;;;9.90;9.60;;;9.80;99.90;;;;;;4944107;29;20222;-80
2023/10/28 04:47:14;;;;;;;10.03;9.73;;;9.80;99.90;;;;;;4944296;28;20274;-80
2023/10/28 04:49:43;;;;;;;10.10;9.80;;;9.80;99.90;;;;;;4943808;28;20246;-80
2023/10/28 04:52:10;;;;;;;10.07;9.77;;;9.80;99.90;;;;;;4944663;29;20239;-81
2023/10/28 04:54:38;;;;;;;10.00;9.70;;;9.80;99.90;;;;;;4943060;29;20242;-80
2023/10/28 04:57:05;;;;;;;10.00;9.70;;;9.80;99.90;;;;;;4942926;28;20248;-80
2023/10/28 04:59:33;;;;;;;10.10;9.80;;;9.80;99.90;;;;;;4942568;28;20265;-80
2023/10/28 05:02:00;;;;;;;10.17;9.87;;;9.80;99.90;;;;;;4943079;29;20246;-80
2023/10/28 05:04:28;;;;;;;9.97;9.67;;;9.80;99.90;;;;;;4943120;29;20283;-79
2023/10/28 05:06:57;;;;;;;10.10;9.80;;;9.80;99.90;;;;;;4942995;29;20239;-80
2023/10/28 05:09:24;;;;;;;10.20;9.90;;;9.80;99.90;;;;;;4942804;29;20231;-80
2023/10/28 05:11:54;;;;;;;10.20;9.90;;;9.80;99.90;;;;;;4944008;29;20242;-81
2023/10/28 05:14:21;;;;;;;10.17;9.87;;;9.70;99.90;;;;;;4943131;29;20243;-80
2023/10/28 05:16:48;;;;;;;10.10;9.80;;;9.70;99.90;;;;;;4943289;29;20342;-80
2023/10/28 05:19:18;;;;;;;10.13;9.83;;;9.80;99.90;;;;;;4945314;29;20238;-79
2023/10/28 05:21:45;;;;;;;10.20;9.90;;;9.80;99.90;;;;;;4946237;29;20235;-79
2023/10/28 05:24:14;;;;;;;9.97;9.67;;;9.80;99.90;;;;;;4946495;29;20298;-79
2023/10/28 05:26:42;;;;;;;10.03;9.73;;;9.80;99.90;;;;;;4947667;28;20230;-79
2023/10/28 05:29:10;;;;;;;10.33;10.03;;;9.80;99.90;;;;;;4947193;29;20230;-79
2023/10/28 05:31:37;;;;;;;10.57;10.27;;;9.80;99.90;;;;;;4947351;29;20242;-79
2023/10/28 05:34:04;;;;;;;10.20;9.90;;;9.80;99.90;;;;;;4946392;29;20318;-80
2023/10/28 05:36:31;;;;;;;10.20;9.90;;;9.80;99.90;;;;;;4947053;29;20239;-80
2023/10/28 05:38:59;;;;;;;10.07;9.77;;;9.90;99.90;;;;;;4946685;28;20317;-79
2023/10/28 05:41:27;;;;;;;9.97;9.67;;;9.80;99.90;;;;;;4945831;29;20246;-80
2023/10/28 05:43:54;;;;;;;10.50;10.20;;;9.90;99.90;;;;;;4946230;29;20452;-80
2023/10/28 05:46:22;;;;;;;10.53;10.23;;;9.80;99.90;;;;;;4947877;29;20298;-80
2023/10/28 05:48:50;;;;;;;10.40;10.10;;;9.80;99.90;;;;;;4947778;29;20266;-82
2023/10/28 05:51:17;;;;;;;10.40;10.10;;;9.90;99.90;;;;;;4946768;29;20247;-82
2023/10/28 05:53:44;;;;;;;10.60;10.30;;;9.90;99.90;;;;;;4948001;29;20239;-81
2023/10/28 05:56:12;;;;;;;10.20;9.90;;;9.90;99.90;;;;;;4951067;29;20270;-82
2023/10/28 05:58:40;;;;;;;10.30;10.00;;;9.90;99.90;;;;;;4947909;29;20238;-81
2023/10/28 06:01:07;;;;;;;10.47;10.17;;;9.80;99.90;;;;;;4945628;29;20278;-83
2023/10/28 06:03:34;;;;;;;10.43;10.13;;;9.90;99.90;;;;;;4943795;29;20262;-81
2023/10/28 06:06:02;;;;;;;10.37;10.07;;;9.90;99.90;;;;;;4943382;29;20226;-81
2023/10/28 06:08:29;;;;;;;10.40;10.10;;;9.80;99.90;;;;;;4939427;29;20231;-81
2023/10/28 06:10:56;;;;;;;10.27;9.97;;;9.80;99.90;;;;;;4941668;29;20245;-81
2023/10/28 06:13:24;;;;;;;10.20;9.90;;;9.90;99.90;;;;;;4948564;28;20246;-82
2023/10/28 06:15:53;;;;;;;10.20;9.90;;;9.90;99.90;;;;;;4942400;29;20246;-82
2023/10/28 06:18:20;;;;;;;10.13;9.83;;;9.90;99.90;;;;;;4945124;29;20250;-82
2023/10/28 06:20:47;;;;;;;9.90;9.60;;;9.90;99.90;;;;;;4939181;29;20227;-82
2023/10/28 06:23:15;;;;;;;9.90;9.60;;;9.90;99.90;;;;;;4947351;29;20231;-82
2023/10/28 06:25:42;;;;;;;9.80;9.50;;;10.00;99.90;;;;;;4946935;29;20238;-82
2023/10/28 06:28:10;;;;;;;9.80;9.50;;;9.90;99.90;;;;;;4947538;29;20235;-82
2023/10/28 06:30:38;;;;;;;9.90;9.60;;;10.00;99.90;;;;;;4946486;29;20255;-81
2023/10/28 06:33:06;;;;;;;9.90;9.60;;;10.00;99.90;;;;;;4947754;29;20235;-82
2023/10/28 06:35:33;;;;;;;10.10;9.80;;;10.00;99.90;;;;;;4939602;29;20232;-82
2023/10/28 06:38:02;;;;;;;9.90;9.60;;;10.00;99.90;;;;;;4948067;28;20261;-82
2023/10/28 06:40:29;;;;;;;9.90;9.60;;;10.10;99.90;;;;;;4947263;29;20239;-81
2023/10/28 06:42:57;;;;;;;9.90;9.60;;;10.10;99.90;;;;;;4940810;29;20231;-83
2023/10/28 06:45:24;;;;;;;10.00;9.70;;;10.10;99.90;;;;;;4942430;29;20286;-83
2023/10/28 06:47:51;;;;;;;10.10;9.80;;;10.20;99.90;;;;;;4944775;29;20298;-82
2023/10/28 06:50:20;;;;;;;10.00;9.70;;;10.20;99.90;;;;;;4947142;29;20298;-82
2023/10/28 06:52:48;;;;;;;10.27;9.97;;;10.30;99.90;;;;;;4947990;29;20315;-82
2023/10/28 06:55:16;;;;;;;10.03;9.73;;;10.40;99.90;;;;;;4949875;29;20258;-82
2023/10/28 06:57:44;;;;;;;10.40;10.10;;;10.40;99.90;;;;;;4948901;29;20243;-82
2023/10/28 07:00:13;;;;;;;10.47;10.17;;;10.40;99.90;;;;;;4946577;29;20242;-82
2023/10/28 07:02:41;;;;;;;10.27;9.97;;;10.50;99.90;;;;;;4947170;29;20243;-82
2023/10/28 07:05:10;;;;;;;10.17;9.87;;;10.50;99.90;;;;;;4948107;28;20231;-82
2023/10/28 07:07:39;;;;;;;10.20;9.90;;;10.50;99.90;;;;;;4947178;29;20306;-84
2023/10/28 07:10:07;;;;;;;10.13;9.83;;;10.60;99.90;;;;;;4946758;29;20292;-84
2023/10/28 07:12:35;;;;;;;10.27;9.97;;;10.60;99.90;;;;;;4947275;29;20290;-84
2023/10/28 07:15:02;;;;;;;10.40;10.10;;;10.70;99.90;;;;;;4945691;29;20322;-84
2023/10/28 07:17:29;;;;;;;9.93;9.63;;;10.70;99.90;;;;;;4947062;28;20243;-82
2023/10/28 07:19:56;;;;;;;10.03;9.73;;;10.80;99.90;;;;;;4941142;29;20243;-82
2023/10/28 07:22:25;;;;;;;10.40;10.10;;;10.90;99.90;;;;;;4939374;29;20303;-82
2023/10/28 07:24:54;;;;;;;9.87;9.57;;;10.90;99.90;;;;;;4940144;28;20235;-81
2023/10/28 07:27:21;;;;;;;10.10;9.80;;;11.00;99.90;;;;;;4948112;29;20270;-81
2023/10/28 07:29:49;;;;;;;9.97;9.67;;;11.10;99.90;;;;;;4945996;28;20250;-81
2023/10/28 07:32:16;;;;;;;9.97;9.67;;;11.30;99.90;;;;;;4946260;29;20227;-80
2023/10/28 07:34:43;;;;;;;10.20;9.90;;;11.40;99.90;;;;;;4947339;29;20238;-81
2023/10/28 07:37:10;;;;;;;10.07;9.77;;;11.40;99.90;;;;;;4947785;29;20290;-81
2023/10/28 07:39:38;;;;;;;10.20;9.90;;;11.50;99.90;;;;;;4947091;29;20263;-81
2023/10/28 07:42:07;;;;;;;9.93;9.63;;;11.60;99.90;;;;;;4945872;29;20282;-80
2023/10/28 07:44:34;;;;;;;9.93;9.63;;;11.60;99.90;;;;;;4945898;28;20279;-81
2023/10/28 07:47:01;;;;;;;10.00;9.70;;;11.80;99.90;;;;;;4946438;29;20255;-82
2023/10/28 07:49:28;;;;;;;9.80;9.50;;;11.80;99.90;;;;;;4946552;29;20227;-82
2023/10/28 07:51:56;;;;;;;9.90;9.60;;;11.90;99.90;;;;;;4946249;28;20223;-83
2023/10/28 07:54:23;;;;;;;10.00;9.70;;;12.00;99.90;;;;;;4938773;28;20235;-80
2023/10/28 07:57:01;;;;;;;10.20;9.90;;;12.10;99.90;;;;;;4937925;29;20239;-81
2023/10/28 07:59:29;;;;;;;10.00;9.70;;;12.20;99.90;;;;;;4947112;28;20245;-81
2023/10/28 08:01:58;;;;;;;9.83;9.53;;;12.10;99.90;;;;;;4947148;29;20231;-80
2023/10/28 08:04:25;;;;;;;10.13;9.83;;;12.20;99.90;;;;;;4946983;29;20223;-80
2023/10/28 08:06:52;;;;;;;9.80;9.50;;;12.20;99.90;;;;;;4939021;29;20290;-80
2023/10/28 08:09:20;;;;;;;10.17;9.87;;;12.10;99.90;;;;;;4947198;29;20231;-80
2023/10/28 08:11:47;;;;;;;10.10;9.80;;;12.10;99.90;;;;;;4947524;29;20243;-80
2023/10/28 08:14:14;;;;;;;9.93;9.63;;;12.10;99.90;;;;;;4944356;29;20228;-81
2023/10/28 08:16:43;;;;;;;10.17;9.87;;;12.10;99.90;;;;;;4940837;29;20236;-81
2023/10/28 08:19:12;;;;;;;10.20;9.90;;;12.00;99.90;;;;;;4950487;29;20983;-80
2023/10/28 08:21:39;;;;;;;10.20;9.90;;;12.00;99.90;;;;;;4938200;29;20282;-80
2023/10/28 08:24:11;;;;;;;9.83;9.53;;;12.00;99.90;;;;;;4940900;29;20239;-80
2023/10/28 08:26:40;;;;;;;10.30;10.00;;;12.00;99.90;;;;;;4947602;29;20242;-80
2023/10/28 08:29:07;;;;;;;9.80;9.50;;;12.00;99.90;;;;;;4950471;28;20251;-80
2023/10/28 08:31:35;;;;;;;9.97;9.67;;;12.00;99.90;;;;;;4949894;29;20263;-82
2023/10/28 08:34:04;;;;;;;10.00;9.70;;;12.00;99.90;;;;;;4948870;29;20231;-80
2023/10/28 08:36:31;;;;;;;9.73;9.43;;;12.00;99.90;;;;;;4948440;29;20237;-80
2023/10/28 08:38:59;;;;;;;9.67;9.37;;;12.00;99.90;;;;;;4947399;29;20242;-80
2023/10/28 08:41:26;;;;;;;9.50;9.20;;;12.00;99.90;;;;;;4947467;29;20250;-80
2023/10/28 08:43:54;;;;;;;9.50;9.20;;;12.00;99.90;;;;;;4947266;29;20302;-82
2023/10/28 08:46:21;;;;;;;9.63;9.33;;;12.10;99.90;;;;;;4947009;29;20238;-80
2023/10/28 08:48:48;;;;;;;9.87;9.57;;;12.10;99.90;;;;;;4947407;29;20392;-80
2023/10/28 08:51:17;;;;;;;9.70;9.40;;;12.20;99.90;;;;;;4947104;29;20243;-81
2023/10/28 08:53:47;;;;;;;9.70;9.40;;;12.20;99.90;;;;;;4946265;29;20235;-80
2023/10/28 08:56:18;;;;;;;9.80;9.50;;;12.20;99.90;;;;;;4947281;28;20231;-81
2023/10/28 08:58:48;;;;;;;9.50;9.20;;;12.20;99.90;;;;;;4946711;29;20234;-80
2023/10/28 09:01:16;;;;;;;9.80;9.50;;;12.30;99.90;;;;;;4948152;29;20593;-81
2023/10/28 09:03:44;;;;;;;9.60;9.30;;;12.30;99.90;;;;;;4947800;29;20231;-80
2023/10/28 09:06:11;;;;;;;9.53;9.23;;;12.30;99.90;;;;;;4947438;29;20243;-80
2023/10/28 09:08:40;;;;;;;9.60;9.30;;;12.30;99.90;;;;;;4947998;29;20242;-80
2023/10/28 09:11:07;;;;;;;9.63;9.33;;;12.30;99.90;;;;;;4947539;28;20231;-80
2023/10/28 09:13:36;;;;;;;9.70;9.40;;;12.30;99.90;;;;;;4949904;29;20222;-81
2023/10/28 09:16:05;;;;;;;9.60;9.30;;;12.30;99.90;;;;;;4945074;29;20250;-81
2023/10/28 09:18:39;;;;;;;9.50;9.20;;;12.50;99.90;;;;;;4930215;29;20263;-81
2023/10/28 09:21:09;;;;;;;9.40;9.10;;;12.60;99.90;;;;;;4937053;29;20299;-80
2023/10/28 09:23:36;;;;;;;9.80;9.50;;;12.70;99.90;;;;;;4960675;28;20223;-79
2023/10/28 09:26:06;;;;;;;9.63;9.33;;;12.70;99.90;;;;;;4959835;28;20277;-79
2023/10/28 09:28:33;;;;;;;9.70;9.40;;;12.80;99.90;;;;;;4960168;28;20278;-79
2023/10/28 09:31:01;;;;;;;9.80;9.50;;;12.90;99.90;;;;;;4960045;28;20231;-79
2023/10/28 09:33:31;;;;;;;9.83;9.53;;;13.00;99.90;;;;;;4959596;28;20234;-80
2023/10/28 09:36:00;;;;;;;9.73;9.43;;;13.00;99.90;;;;;;4960509;28;20283;-79
2023/10/28 09:38:28;;;;;;;9.67;9.37;;;13.10;99.90;;;;;;4953764;28;20242;-77
2023/10/28 09:40:56;;;;;;;9.77;9.47;;;13.20;99.90;;;;;;4953500;29;20247;-79
2023/10/28 09:43:26;;;;;;;9.80;9.50;;;13.20;99.90;;;;;;4958363;29;20218;-80
2023/10/28 09:45:54;;;;;;;9.83;9.53;;;13.30;99.90;;;;;;4958780;28;20230;-79
2023/10/28 09:48:21;;;;;;;9.50;9.20;;;13.40;99.90;;;;;;4958090;29;20238;-79
2023/10/28 09:50:50;;;;;;;9.50;9.20;;;13.50;99.90;;;;;;4955633;29;20258;-79
2023/10/28 09:53:26;;;;;;;9.47;9.17;;;13.50;99.90;;;;;;4950979;29;20251;-80
2023/10/28 09:55:57;;;;;;;9.40;9.10;;;13.60;99.90;;;;;;4946273;29;20245;-82
2023/10/28 09:58:32;;;;;;;9.77;9.47;;;13.70;99.90;;;;;;4946234;29;20261;-81
2023/10/28 10:01:12;;;;;;;9.30;9.00;;;13.70;99.90;;;;;;4935963;29;20234;-79
2023/10/28 10:03:59;;;;;;;9.70;9.40;;;13.70;99.90;;;;;;4945415;29;20265;-80
2023/10/28 10:06:26;;;;;;;8.97;8.77;;;13.60;99.90;;;;;;4949145;29;20237;-82
2023/10/28 10:08:56;;;;;;;8.93;8.73;;;13.60;99.90;;;;;;4950656;29;20235;-80
2023/10/28 10:11:24;;;;;;;8.70;8.50;;;13.60;99.90;;;;;;4949612;28;20239;-82
2023/10/28 10:13:55;;;;;;;8.87;8.67;;;13.70;99.90;;;;;;4948590;29;20259;-81
2023/10/28 10:16:38;;;;;;;9.00;8.80;;;13.80;99.90;;;;;;4949143;29;20235;-80
2023/10/28 10:19:11;;;;;;;8.90;8.70;;;14.00;99.90;;;;;;4950211;29;20235;-80
2023/10/28 10:21:38;;;;;;;8.90;8.70;;;14.20;99.90;;;;;;4950026;29;20227;-82
2023/10/28 10:24:07;;;;;;;9.03;8.83;;;14.30;99.90;;;;;;4949790;29;20323;-81
2023/10/28 10:26:36;;;;;;;9.23;8.93;;;14.40;99.90;;;;;;4950216;29;20230;-82
2023/10/28 10:29:05;;;;;;;9.17;8.87;;;14.60;99.90;;;;;;4950571;29;20261;-81
2023/10/28 10:31:35;;;;;;;9.23;8.93;;;14.80;99.90;;;;;;4948968;28;20286;-81
2023/10/28 10:34:05;;;;;;;9.35;9.05;;;15.10;99.90;;;;;;4948905;29;20226;-80
2023/10/28 10:36:36;;;;;;;9.45;9.15;;;15.50;99.90;;;;;;4951082;28;20239;-81
2023/10/28 10:39:18;;;;;;;9.27;8.98;;;15.70;99.90;;;;;;4949262;29;20223;-82
2023/10/28 10:41:49;;;;;;;9.52;9.23;;;15.90;99.90;;;;;;4949899;29;20241;-83
2023/10/28 10:44:32;;;;;;;9.45;9.15;;;16.10;99.90;;;;;;4948637;29;20231;-82
2023/10/28 10:47:00;;;;;;;9.30;9.00;;;16.00;99.90;;;;;;4948651;29;20306;-82
2023/10/28 10:49:30;;;;;;;9.30;9.00;;;16.00;99.90;;;;;;4950042;29;20251;-82
2023/10/28 14:19:00;;;;;;;;;;;;;;;;;;;;;
2023/10/28 14:54:41;;;;;;;9.80;9.50;;;14.10;99.90;;;;;;4851374;29;20241;-87
2023/10/28 14:57:49;;;;;;;9.97;9.67;;;14.00;99.90;;;;;;4931977;29;20334;-87
2023/10/28 15:09:47;;;;;;;10.10;9.80;;;13.80;99.90;;;;;;4922063;29;20212;-87
2023/10/28 15:12:57;;;;;;;;;;;;;;;;;;;;;
2023/10/28 15:18:27;;;;;;;10.30;10.00;;;13.80;99.90;;;;;;4916821;29;20224;-86
2023/10/28 15:21:15;;;;;;;10.37;10.07;;;13.80;99.90;;;;;;4915370;29;20256;-87
2023/10/28 15:24:37;;;;;;;10.40;10.10;;;13.80;99.90;;;;;;4921134;29;20296;-88
2023/10/28 15:30:55;;;;;;;10.07;9.77;;;13.70;99.90;;;;;;4910431;29;20228;-89
2023/10/28 15:33:51;;;;;;;10.20;9.90;;;13.70;99.90;;;;;;4892560;29;20331;-88
2023/10/28 15:50:01;;;;;;;;;;;;;;;;;;;;;
2023/10/28 15:52:39;;;;;;;10.10;9.80;;;13.30;99.90;;;;;;5143512;27;20259;-87
2023/10/28 15:58:47;;;;;;;;;;;;;;;;;;;;;
2023/10/28 16:04:53;;;;;;;10.10;9.80;;;13.10;99.90;;;;;;5125443;27;20235;-89
2023/10/28 16:11:27;;;;;;;10.37;10.07;;;13.00;99.90;;;;;;5076982;28;20241;-86
2023/10/28 16:16:37;;;;;;;9.80;9.50;;;12.90;99.90;;;;;;5088148;28;20228;-86
2023/10/28 16:19:06;;;;;;;9.80;9.50;;;12.90;99.90;;;;;;5095744;27;20294;-86
2023/10/28 16:21:38;;;;;;;9.70;9.40;;;13.00;99.90;;;;;;5124593;27;20232;-86
2023/10/28 16:24:14;;;;;;;9.53;9.23;;;13.00;99.90;;;;;;5121067;28;20248;-87
2023/10/28 16:26:46;;;;;;;9.67;9.37;;;13.00;99.90;;;;;;5121405;28;20228;-86
2023/10/28 16:29:32;;;;;;;9.60;9.30;;;12.90;99.90;;;;;;5123452;28;20221;-87
2023/10/28 16:32:00;;;;;;;9.53;9.23;;;12.90;99.90;;;;;;5124817;28;20950;-85
2023/10/28 16:34:29;;;;;;;9.50;9.20;;;12.90;99.90;;;;;;5122779;27;20225;-86
2023/10/28 16:40:40;;;;;;;10.03;9.73;;;12.80;99.90;;;;;;5120310;27;20601;-88
2023/10/28 16:43:45;;;;;;;9.80;9.50;;;12.80;99.90;;;;;;5095524;27;20225;-86
2023/10/28 16:48:59;;;;;;;9.60;9.30;;;12.70;99.90;;;;;;5128055;27;20247;-86
2023/10/28 16:51:27;;;;;;;9.63;9.33;;;12.60;99.90;;;;;;5134737;22;20217;-82
2023/10/28 16:53:54;;;;;;;9.80;9.50;;;12.60;99.90;;;;;;5100838;28;20240;-82
2023/10/28 16:56:21;;;;;;;9.60;9.30;;;12.60;99.90;;;;;;5093547;28;20246;-82
2023/10/28 16:58:50;;;;;;;9.33;9.03;;;12.50;99.90;;;;;;5089795;28;20237;-82
2023/10/28 17:01:17;;;;;;;9.40;9.10;;;12.50;99.90;;;;;;5074556;28;20221;-82
2023/10/28 17:03:45;;;;;;;9.30;9.00;;;12.40;99.90;;;;;;5086984;28;20292;-81
2023/10/28 17:06:12;;;;;;;9.23;8.93;;;12.40;99.90;;;;;;5086908;28;20308;-81
2023/10/28 17:08:40;;;;;;;9.47;9.17;;;12.40;99.90;;;;;;5086082;28;20226;-82
2023/10/28 17:11:07;;;;;;;9.50;9.20;;;12.40;99.90;;;;;;5085664;28;20219;-82
2023/10/28 17:13:35;;;;;;;9.40;9.10;;;12.30;99.90;;;;;;5086922;28;20234;-82
2023/10/28 17:16:04;;;;;;;9.40;9.10;;;12.30;99.90;;;;;;5085396;28;20250;-82
2023/10/28 17:18:32;;;;;;;9.67;9.37;;;12.30;99.90;;;;;;5085774;28;20234;-82
2023/10/28 17:21:05;;;;;;;9.40;9.10;;;12.30;99.90;;;;;;5084906;28;20244;-82
2023/10/28 17:23:33;;;;;;;9.20;8.90;;;12.20;99.90;;;;;;5085969;28;20272;-81
2023/10/28 17:26:00;;;;;;;9.30;9.00;;;12.00;99.90;;;;;;5090254;28;20234;-82
2023/10/28 17:28:28;;;;;;;9.40;9.10;;;12.00;99.90;;;;;;5091718;28;20252;-80
2023/10/28 17:30:56;;;;;;;9.27;8.97;;;12.00;99.90;;;;;;5087199;28;20232;-80
2023/10/28 17:33:25;;;;;;;9.50;9.20;;;12.00;99.90;;;;;;5086152;28;20321;-81
2023/10/28 17:35:54;;;;;;;9.13;8.83;;;11.80;99.90;;;;;;5087122;28;20234;-81
2023/10/28 17:38:22;;;;;;;9.57;9.27;;;11.60;99.90;;;;;;5089663;28;20238;-80
2023/10/28 17:40:49;;;;;;;9.50;9.20;;;11.60;99.90;;;;;;5091483;28;20229;-80
2023/10/28 17:43:16;;;;;;;9.57;9.27;;;11.70;99.90;;;;;;5090684;28;20264;-81
2023/10/28 17:45:43;;;;;;;9.53;9.23;;;11.70;99.90;;;;;;5091488;28;20305;-80
2023/10/28 17:48:11;;;;;;;9.50;9.20;;;11.60;99.90;;;;;;5099369;28;20225;-81
2023/10/28 17:50:40;;;;;;;9.60;9.30;;;11.50;99.90;;;;;;5099846;28;20230;-80
2023/10/28 17:53:08;;;;;;;9.37;9.07;;;11.50;99.90;;;;;;5099939;28;20238;-80